Time;durP1;ratioP1;P1;durP2;ratioP2;P2;SDS_P1;SDS_P2;PMS_P1;PMS_P2;Temp;Humidity;BMP_temperature;BMP_pressure;BME280_temperature;BME280_humidity;BME280_pressure;Samples;Min_cycle;Max_cycle;Signal;HPM_P1;HPM_P2
2024/02/28 00:00:14;;;;;;;0.30;0.20;;;;;;;5.43;97.24;100455.94;5054374;28;20443;-50
2024/02/28 00:02:40;;;;;;;0.30;0.20;;;;;;;5.38;97.33;100447.19;5055083;28;20446;-50
2024/02/28 00:05:07;;;;;;;0.30;0.20;;;;;;;5.26;97.39;100456.03;5054479;28;20504;-49
2024/02/28 00:07:34;;;;;;;0.30;0.20;;;;;;;5.07;97.55;100457.84;5054591;28;20467;-49
2024/02/28 00:10:01;;;;;;;0.30;0.20;;;;;;;5.04;98.91;100455.22;5054407;28;20541;-49
2024/02/28 00:12:27;;;;;;;0.67;0.67;;;;;;;5.13;99.25;100449.94;5054619;28;20451;-50
2024/02/28 00:14:54;;;;;;;0.30;0.20;;;;;;;5.00;97.09;100457.00;5055254;28;20446;-50
2024/02/28 00:17:20;;;;;;;0.30;0.20;;;;;;;4.81;96.98;100459.69;5055247;28;20555;-49
2024/02/28 00:19:47;;;;;;;0.30;0.20;;;;;;;4.72;98.13;100468.47;5054042;28;20542;-49
2024/02/28 00:22:13;;;;;;;0.30;0.20;;;;;;;4.69;97.93;100469.38;5054584;28;20558;-49
2024/02/28 00:24:40;;;;;;;0.30;0.20;;;;;;;4.81;97.17;100463.22;5054037;28;20475;-49
2024/02/28 00:27:07;;;;;;;0.30;0.10;;;;;;;4.86;97.53;100477.22;5054127;28;21011;-49
2024/02/28 00:29:33;;;;;;;0.30;0.20;;;;;;;5.03;96.99;100475.41;5053949;28;20541;-49
2024/02/28 00:32:00;;;;;;;0.30;0.17;;;;;;;5.10;96.88;100478.03;5054271;28;20446;-49
2024/02/28 00:34:26;;;;;;;0.30;0.10;;;;;;;5.00;96.67;100470.16;5054009;28;20447;-49
2024/02/28 00:36:53;;;;;;;0.30;0.10;;;;;;;4.90;97.51;100472.81;5054253;28;20477;-49
2024/02/28 00:39:22;;;;;;;0.30;0.20;;;;;;;4.89;97.79;100468.44;5054896;28;20447;-49
2024/02/28 00:41:49;;;;;;;0.30;0.20;;;;;;;4.62;97.59;100472.00;5053562;28;20478;-49
2024/02/28 00:44:15;;;;;;;0.30;0.20;;;;;;;4.52;97.86;100470.25;5054510;28;21039;-49
2024/02/28 00:46:42;;;;;;;0.30;0.20;;;;;;;4.54;98.26;100472.03;5054387;28;20540;-50
2024/02/28 00:49:08;;;;;;;0.30;0.10;;;;;;;4.47;97.37;100484.31;5054716;28;20533;-49
2024/02/28 00:51:37;;;;;;;0.30;0.20;;;;;;;4.57;98.01;100490.44;5054375;28;20490;-49
2024/02/28 00:54:03;;;;;;;0.30;0.20;;;;;;;4.57;97.14;100486.94;5053417;28;20522;-49
2024/02/28 00:56:30;;;;;;;0.30;0.20;;;;;;;4.37;97.13;100487.81;5052572;28;20465;-49
2024/02/28 00:58:57;;;;;;;0.30;0.20;;;;;;;4.25;96.78;100494.81;5053363;28;20468;-49
2024/02/28 01:01:23;;;;;;;0.30;0.10;;;;;;;4.28;96.42;100502.75;5053714;28;20478;-49
2024/02/28 01:03:49;;;;;;;0.30;0.20;;;;;;;4.18;96.18;100499.22;5053334;28;20458;-49
2024/02/28 01:06:16;;;;;;;0.30;0.10;;;;;;;4.06;96.27;100502.72;5053477;28;20518;-49
2024/02/28 01:08:43;;;;;;;0.30;0.20;;;;;;;4.09;97.72;100501.84;5053258;28;20467;-49
2024/02/28 01:11:10;;;;;;;0.30;0.20;;;;;;;4.02;97.00;100500.97;5053105;28;20552;-49
2024/02/28 01:13:36;;;;;;;0.30;0.13;;;;;;;3.91;97.83;100512.34;5053534;28;20490;-49
2024/02/28 01:16:03;;;;;;;0.30;0.13;;;;;;;3.93;97.86;100519.34;5053255;28;21015;-49
2024/02/28 01:18:30;;;;;;;0.30;0.20;;;;;;;3.89;98.32;100519.34;5040091;28;20563;-49
2024/02/28 01:20:57;;;;;;;0.30;0.20;;;;;;;3.87;97.55;100519.34;5052999;28;20454;-49
2024/02/28 01:23:23;;;;;;;0.30;0.20;;;;;;;3.93;97.21;100519.34;5053196;28;20447;-49
2024/02/28 01:25:50;;;;;;;0.30;0.20;;;;;;;3.86;96.98;100518.47;5053518;28;20486;-49
2024/02/28 01:28:17;;;;;;;0.30;0.17;;;;;;;3.76;96.80;100527.19;5053148;28;20475;-50
2024/02/28 01:30:43;;;;;;;0.30;0.10;;;;;;;3.77;97.07;100525.44;5053022;28;20530;-49
2024/02/28 01:33:10;;;;;;;0.30;0.20;;;;;;;3.80;96.58;100528.06;5053072;28;20447;-49
2024/02/28 01:35:36;;;;;;;0.30;0.10;;;;;;;3.53;96.83;100527.13;5052538;28;20851;-49
2024/02/28 01:38:03;;;;;;;0.30;0.10;;;;;;;3.69;97.11;100527.16;5052665;28;20565;-49
2024/02/28 01:40:29;;;;;;;0.30;0.20;;;;;;;3.55;97.43;100520.09;5052937;28;20447;-49
2024/02/28 01:43:11;;;;;;;0.30;0.10;;;;;;;3.59;97.50;100523.66;5052989;28;20494;-49
2024/02/28 01:45:37;;;;;;;0.30;0.13;;;;;;;3.70;97.24;100519.31;5052652;28;20490;-49
2024/02/28 01:48:08;;;;;;;0.30;0.20;;;;;;;3.88;97.31;100517.59;5052670;28;20836;-49
2024/02/28 01:50:36;;;;;;;0.30;0.20;;;;;;;3.62;96.84;100522.78;5052464;28;20454;-49
2024/02/28 01:53:05;;;;;;;0.40;0.40;;;;;;;3.68;97.34;100526.28;5053404;28;20475;-50
2024/02/28 01:55:32;;;;;;;0.30;0.10;;;;;;;3.67;96.68;100515.78;5053155;28;20447;-49
2024/02/28 01:57:59;;;;;;;0.30;0.10;;;;;;;3.50;96.75;100507.84;5053316;28;20558;-49
2024/02/28 02:00:27;;;;;;;0.30;0.20;;;;;;;3.42;97.44;100520.06;5053248;28;20442;-50
2024/02/28 02:02:54;;;;;;;0.30;0.10;;;;;;;3.44;97.40;100510.47;5053473;28;20453;-49
2024/02/28 02:05:20;;;;;;;0.30;0.20;;;;;;;3.31;97.41;100519.16;5052599;28;20486;-50
2024/02/28 02:07:48;;;;;;;0.30;0.10;;;;;;;3.28;97.41;100518.25;5052454;28;20881;-50
2024/02/28 02:10:15;;;;;;;0.30;0.20;;;;;;;3.35;97.86;100515.66;5052454;28;20538;-50
2024/02/28 02:12:41;;;;;;;0.40;0.40;;;;;;;3.24;96.47;100519.13;5052460;28;20446;-50
2024/02/28 02:15:08;;;;;;;0.30;0.10;;;;;;;3.20;96.53;100513.84;5052839;28;20474;-50
2024/02/28 02:17:34;;;;;;;0.30;0.20;;;;;;;3.15;96.58;100524.34;5052258;28;20917;-50
2024/02/28 02:20:02;;;;;;;2.97;2.73;;;;;;;3.16;96.66;100525.22;5052213;28;20457;-50
2024/02/28 02:22:34;;;;;;;0.30;0.20;;;;;;;2.97;97.04;100530.34;5052477;28;20451;-50
2024/02/28 02:25:03;;;;;;;0.20;0.10;;;;;;;3.08;97.84;100540.91;5052228;28;20453;-50
2024/02/28 02:27:29;;;;;;;0.30;0.10;;;;;;;2.97;97.36;100537.34;5052055;28;20999;-49
2024/02/28 02:29:56;;;;;;;0.30;0.10;;;;;;;3.04;97.77;100533.03;5052254;28;20454;-50
2024/02/28 02:32:22;;;;;;;0.30;0.10;;;;;;;2.98;98.05;100536.47;5052099;28;20817;-50
2024/02/28 02:34:49;;;;;;;0.20;0.10;;;;;;;2.96;98.22;100536.47;5052310;28;20447;-49
2024/02/28 02:37:15;;;;;;;0.20;0.10;;;;;;;2.95;97.46;100534.72;5052615;28;20550;-50
2024/02/28 02:39:41;;;;;;;0.30;0.20;;;;;;;3.12;98.15;100532.19;5053289;28;20446;-50
2024/02/28 02:42:08;;;;;;;0.30;0.20;;;;;;;3.01;97.07;100536.47;5052996;28;20462;-50
2024/02/28 02:44:34;;;;;;;0.30;0.10;;;;;;;2.90;96.99;100530.31;5053096;28;20451;-50
2024/02/28 02:47:01;;;;;;;0.20;0.10;;;;;;;2.87;97.90;100535.53;5052305;28;20494;-50
2024/02/28 02:49:27;;;;;;;0.23;0.10;;;;;;;2.87;97.81;100532.91;5052896;28;20526;-50
2024/02/28 02:51:54;;;;;;;0.30;0.10;;;;;;;2.88;98.09;100538.19;5052546;28;20823;-50
2024/02/28 02:54:20;;;;;;;0.30;0.10;;;;;;;2.88;97.64;100532.94;5052872;28;20447;-50
2024/02/28 02:59:15;;;;;;;0.20;0.10;;;;;;;2.85;96.76;100534.63;4991062;28;20962;-50
2024/02/28 03:01:41;;;;;;;0.20;0.10;;;;;;;2.70;97.57;100542.41;4992312;28;20477;-48
2024/02/28 03:04:08;;;;;;;0.20;0.20;;;;;;;2.70;98.53;100534.53;4992725;28;20892;-48
2024/02/28 03:06:34;;;;;;;0.30;0.10;;;;;;;2.77;97.61;100534.59;4992284;28;20493;-48
2024/02/28 03:09:01;;;;;;;0.20;0.10;;;;;;;2.64;97.26;100553.75;5011882;28;20468;-48
2024/02/28 03:11:27;;;;;;;0.20;0.10;;;;;;;2.76;97.23;100547.72;5012031;28;20452;-49
2024/02/28 03:13:54;;;;;;;0.20;0.10;;;;;;;2.63;96.79;100549.38;5011961;28;20452;-48
2024/02/28 03:16:20;;;;;;;0.30;0.10;;;;;;;2.48;97.26;100552.75;5007299;28;20453;-48
2024/02/28 03:18:46;;;;;;;5.03;4.73;;;;;;;2.42;97.42;100550.06;5012058;28;20520;-49
2024/02/28 03:21:13;;;;;;;0.30;0.20;;;;;;;2.45;97.14;100549.19;5014290;28;20463;-48
2024/02/28 03:23:40;;;;;;;0.20;0.20;;;;;;;2.43;97.57;100551.81;5015596;28;20452;-48
2024/02/28 03:26:06;;;;;;;0.23;0.10;;;;;;;2.37;96.97;100559.66;5015327;28;20542;-48
2024/02/28 03:28:32;;;;;;;0.20;0.10;;;;;;;2.37;97.58;100567.50;5015290;28;20472;-49
2024/02/28 03:30:59;;;;;;;0.20;0.10;;;;;;;2.46;98.56;100564.94;5015515;28;20825;-49
2024/02/28 03:33:25;;;;;;;0.20;0.10;;;;;;;2.32;96.81;100569.19;5015416;28;20456;-49
2024/02/28 03:35:52;;;;;;;0.20;0.20;;;;;;;2.38;97.67;100567.53;5015122;28;20884;-49
2024/02/28 03:38:18;;;;;;;0.20;0.10;;;;;;;2.41;96.79;100573.66;5015214;28;20661;-49
2024/02/28 03:40:44;;;;;;;0.20;0.10;;;;;;;2.37;97.16;100589.38;5014969;28;20459;-49
2024/02/28 03:43:12;;;;;;;0.20;0.10;;;;;;;2.32;97.67;100587.56;5015027;28;20984;-49
2024/02/28 03:45:39;;;;;;;0.20;0.10;;;;;;;2.24;97.55;100597.13;5012736;28;20485;-49
2024/02/28 03:48:06;;;;;;;0.20;0.10;;;;;;;2.46;97.84;100601.69;5004492;28;20475;-48
2024/02/28 03:50:32;;;;;;;0.20;0.20;;;;;;;2.44;96.79;100605.16;5014562;28;20916;-49
2024/02/28 03:52:59;;;;;;;0.30;0.10;;;;;;;2.16;97.06;100610.13;5014953;28;20549;-49
2024/02/28 03:55:25;;;;;;;0.20;0.10;;;;;;;2.09;96.28;100616.19;5000778;28;20966;-48
2024/02/28 03:57:52;;;;;;;0.20;0.10;;;;;;;2.21;96.39;100615.44;5014477;28;20477;-49
2024/02/28 04:00:19;;;;;;;0.20;0.13;;;;;;;1.97;97.87;100616.94;5010659;28;20925;-48
2024/02/28 04:02:45;;;;;;;0.20;0.17;;;;;;;2.13;97.86;100619.72;5005980;28;20449;-49
2024/02/28 04:05:12;;;;;;;0.20;0.10;;;;;;;2.27;97.38;100608.50;5014551;28;20480;-49
2024/02/28 04:07:38;;;;;;;0.20;0.10;;;;;;;2.23;96.84;100619.84;5014507;28;20801;-49
2024/02/28 04:10:05;;;;;;;0.20;0.10;;;;;;;2.13;96.49;100612.72;5014401;28;20452;-49
2024/02/28 04:12:32;;;;;;;0.20;0.10;;;;;;;2.09;95.88;100618.81;5014489;28;20452;-49
2024/02/28 04:14:59;;;;;;;0.20;0.10;;;;;;;1.88;95.25;100631.66;5014601;28;20545;-48
2024/02/28 04:17:25;;;;;;;0.20;0.10;;;;;;;2.00;96.29;100630.06;5009667;28;20559;-49
2024/02/28 04:19:52;;;;;;;0.20;0.10;;;;;;;2.19;96.13;100632.88;5014256;28;20452;-51
2024/02/28 04:22:18;;;;;;;0.20;0.10;;;;;;;2.07;96.60;100631.03;5014360;28;20891;-49
2024/02/28 04:24:45;;;;;;;1.23;1.23;;;;;;;2.02;96.03;100624.84;5013986;28;20455;-49
2024/02/28 04:27:12;;;;;;;0.20;0.10;;;;;;;2.02;95.42;100628.34;5014338;28;20500;-49
2024/02/28 04:29:38;;;;;;;0.20;0.20;;;;;;;1.97;95.53;100632.66;5014122;28;20828;-49
2024/02/28 04:32:05;;;;;;;0.20;0.20;;;;;;;1.98;96.49;100634.41;5013967;28;20453;-49
2024/02/28 04:34:31;;;;;;;0.20;0.10;;;;;;;1.96;96.48;100633.50;5013979;28;20539;-49
2024/02/28 04:36:58;;;;;;;0.20;0.10;;;;;;;1.97;96.31;100645.75;5013966;28;20444;-49
2024/02/28 04:39:24;;;;;;;0.20;0.10;;;;;;;1.91;96.22;100647.41;5013903;28;20853;-48
2024/02/28 04:41:51;;;;;;;0.20;0.10;;;;;;;1.94;95.72;100652.72;5014139;28;20460;-49
2024/02/28 04:44:17;;;;;;;0.20;0.20;;;;;;;1.93;96.42;100656.19;5014211;28;20456;-49
2024/02/28 04:46:43;;;;;;;0.20;0.10;;;;;;;2.00;96.36;100656.28;5002911;28;20580;-49
2024/02/28 04:49:10;;;;;;;0.20;0.10;;;;;;;2.08;95.47;100659.00;5013566;28;20527;-49
2024/02/28 04:51:36;;;;;;;0.20;0.10;;;;;;;1.81;96.02;100667.41;5013678;28;20452;-48
2024/02/28 04:54:03;;;;;;;0.20;0.10;;;;;;;1.95;95.39;100670.19;5008141;28;20449;-49
2024/02/28 04:56:29;;;;;;;0.20;0.10;;;;;;;1.84;96.05;100659.56;4994199;28;20452;-49
2024/02/28 04:58:56;;;;;;;0.20;0.10;;;;;;;1.90;96.89;100664.88;5012994;28;20486;-49
2024/02/28 05:01:22;;;;;;;0.30;0.10;;;;;;;1.82;96.96;100670.91;5001012;28;20484;-49
2024/02/28 05:03:49;;;;;;;0.20;0.10;;;;;;;1.67;96.62;100682.06;5013456;28;20519;-49
2024/02/28 05:06:16;;;;;;;0.20;0.10;;;;;;;1.61;95.98;100671.47;5013369;28;20538;-49
2024/02/28 05:08:42;;;;;;;5.30;3.70;;;;;;;1.48;95.40;100684.41;5013568;28;20481;-49
2024/02/28 05:11:08;;;;;;;0.20;0.10;;;;;;;1.55;95.69;100681.88;5013627;28;20456;-49
2024/02/28 05:13:35;;;;;;;0.20;0.10;;;;;;;1.75;96.54;100675.16;5013416;28;20448;-49
2024/02/28 05:16:02;;;;;;;0.20;0.10;;;;;;;1.96;95.88;100680.69;5008046;28;20931;-49
2024/02/28 05:18:28;;;;;;;0.20;0.10;;;;;;;1.73;95.66;100679.50;5013165;28;20509;-49
2024/02/28 05:20:55;;;;;;;0.20;0.10;;;;;;;1.97;97.47;100679.84;5013246;28;20464;-49
2024/02/28 05:23:23;;;;;;;0.20;0.10;;;;;;;1.68;95.56;100683.81;4987536;28;20449;-49
2024/02/28 05:25:49;;;;;;;0.20;0.10;;;;;;;1.55;95.56;100681.88;5013153;28;20502;-49
2024/02/28 05:28:16;;;;;;;0.20;0.10;;;;;;;1.53;94.93;100687.09;5013587;28;20567;-49
2024/02/28 05:30:42;;;;;;;0.20;0.10;;;;;;;1.38;94.90;100685.16;5013054;28;20543;-49
2024/02/28 05:33:14;;;;;;;0.20;0.10;;;;;;;1.39;95.79;100691.28;5013135;28;20441;-48
2024/02/28 05:35:40;;;;;;;0.20;0.10;;;;;;;1.43;96.31;100696.56;5012889;28;20448;-49
2024/02/28 05:38:07;;;;;;;0.20;0.10;;;;;;;1.44;96.86;100707.91;5013172;28;20870;-49
2024/02/28 05:40:33;;;;;;;0.20;0.20;;;;;;;1.48;96.90;100709.72;5012864;28;20455;-48
2024/02/28 05:43:01;;;;;;;0.20;0.20;;;;;;;1.50;96.79;100718.47;5012684;28;20456;-49
2024/02/28 05:45:28;;;;;;;0.20;0.10;;;;;;;1.40;96.77;100717.47;5012152;28;20475;-49
2024/02/28 05:47:54;;;;;;;0.20;0.10;;;;;;;1.59;95.86;100721.25;5001119;28;21071;-49
2024/02/28 05:50:21;;;;;;;0.20;0.10;;;;;;;1.45;96.55;100718.41;5012498;28;20449;-49
2024/02/28 05:52:47;;;;;;;0.20;0.10;;;;;;;1.59;97.10;100722.97;5013021;28;20552;-49
2024/02/28 05:55:14;;;;;;;0.20;0.10;;;;;;;1.67;97.16;100729.22;4997755;28;20536;-49
2024/02/28 05:57:40;;;;;;;0.30;0.10;;;;;;;1.76;96.80;100722.34;5001752;28;20486;-48
2024/02/28 06:00:09;;;;;;;0.20;0.17;;;;;;;1.82;96.55;100731.19;5010070;28;20453;-49
2024/02/28 06:02:37;;;;;;;0.20;0.10;;;;;;;1.71;96.60;100718.78;5002516;28;20941;-49
2024/02/28 06:05:04;;;;;;;0.20;0.10;;;;;;;1.73;97.01;100724.06;5012678;28;20507;-49
2024/02/28 06:07:31;;;;;;;0.20;0.10;;;;;;;1.80;96.64;100723.28;5012795;28;20500;-49
2024/02/28 06:09:57;;;;;;;0.20;0.10;;;;;;;1.79;95.94;100724.16;5011438;28;20455;-48
2024/02/28 06:12:24;;;;;;;0.20;0.13;;;;;;;1.81;96.62;100722.44;5012440;28;20904;-48
2024/02/28 06:14:50;;;;;;;0.20;0.10;;;;;;;1.90;97.14;100725.16;5012318;28;20946;-48
2024/02/28 06:17:17;;;;;;;0.20;0.20;;;;;;;1.93;96.72;100727.84;5006949;28;20464;-48
2024/02/28 06:19:43;;;;;;;0.20;0.10;;;;;;;1.82;97.93;100737.28;5012515;28;20481;-48
2024/02/28 06:22:09;;;;;;;0.20;0.10;;;;;;;1.85;96.13;100745.19;5012951;28;20449;-60
2024/02/28 06:24:36;;;;;;;0.20;0.10;;;;;;;1.66;96.45;100745.81;5012552;28;20891;-47
2024/02/28 06:27:04;;;;;;;0.23;0.13;;;;;;;1.82;96.95;100744.28;5012407;28;21052;-48
2024/02/28 06:29:30;;;;;;;0.30;0.10;;;;;;;1.76;96.60;100755.53;5012755;28;20491;-47
2024/02/28 06:31:57;;;;;;;0.20;0.10;;;;;;;2.00;97.60;100755.88;5012449;28;20449;-49
2024/02/28 06:34:24;;;;;;;0.20;0.10;;;;;;;1.91;96.60;100770.59;5012607;28;20956;-47
2024/02/28 06:36:51;;;;;;;0.20;0.10;;;;;;;1.95;96.93;100764.56;5012657;28;20453;-48
2024/02/28 06:39:17;;;;;;;0.20;0.10;;;;;;;1.94;96.22;100762.81;5012551;28;20822;-48
2024/02/28 06:41:43;;;;;;;0.20;0.10;;;;;;;1.84;96.31;100767.03;5012443;28;20453;-47
2024/02/28 06:44:11;;;;;;;0.20;0.10;;;;;;;2.07;95.98;100778.72;5012435;28;20456;-48
2024/02/28 06:46:37;;;;;;;0.20;0.10;;;;;;;2.28;95.15;100774.59;5002291;28;20528;-48
2024/02/28 06:49:04;;;;;;;0.20;0.10;;;;;;;2.18;96.50;100781.47;5010574;28;20467;-48
2024/02/28 06:51:30;;;;;;;0.20;0.10;;;;;;;2.00;96.13;100774.25;5012323;28;20452;-48
2024/02/28 06:53:57;;;;;;;0.20;0.10;;;;;;;2.03;96.33;100790.00;5008572;28;20449;-48
2024/02/28 06:56:23;;;;;;;0.20;0.10;;;;;;;2.10;96.86;100787.47;5028113;28;20627;-48
2024/02/28 06:58:50;;;;;;;0.20;0.10;;;;;;;2.13;96.90;100798.00;5014083;28;20480;-48
2024/02/28 07:01:17;;;;;;;0.20;0.10;;;;;;;2.20;98.61;100797.25;5004078;28;20445;-47
2024/02/28 07:03:44;;;;;;;0.20;0.10;;;;;;;2.20;99.57;100803.38;5014748;28;20452;-48
2024/02/28 07:06:11;;;;;;;0.23;0.13;;;;;;;2.45;99.95;100804.53;5016187;28;20475;-48
2024/02/28 07:08:37;;;;;;;0.20;0.10;;;;;;;2.41;98.46;100805.38;5016252;28;20539;-48
2024/02/28 07:11:04;;;;;;;0.20;0.10;;;;;;;2.48;97.91;100807.22;5016222;28;20448;-47
2024/02/28 07:13:30;;;;;;;0.20;0.10;;;;;;;2.69;98.58;100806.59;5016945;28;20464;-48
2024/02/28 07:15:57;;;;;;;0.20;0.13;;;;;;;2.56;98.64;100817.81;5012604;28;20463;-48
2024/02/28 07:18:29;;;;;;;0.20;0.10;;;;;;;2.59;98.54;100809.97;5015585;28;20470;-49
2024/02/28 07:20:55;;;;;;;0.20;0.10;;;;;;;2.68;99.34;100815.31;5015674;28;20890;-50
2024/02/28 07:23:22;;;;;;;0.20;0.10;;;;;;;2.83;98.60;100812.00;5015761;28;20909;-48
2024/02/28 07:25:48;;;;;;;0.20;0.20;;;;;;;2.85;99.66;100823.38;5015650;28;20547;-49
2024/02/28 07:28:15;;;;;;;0.20;0.20;;;;;;;2.93;99.42;100817.38;5015405;28;20496;-49
2024/02/28 07:30:42;;;;;;;0.20;0.10;;;;;;;2.91;99.30;100818.22;5014508;28;20535;-49
2024/02/28 07:33:08;;;;;;;0.30;0.10;;;;;;;2.84;98.62;100812.00;5015618;28;20486;-49
2024/02/28 07:35:45;;;;;;;0.20;0.20;;;;;;;3.04;99.09;100808.72;5015135;28;20452;-49
2024/02/28 07:38:12;;;;;;;0.20;0.17;;;;;;;3.11;98.81;100810.53;5015335;28;20460;-49
2024/02/28 07:40:39;;;;;;;0.20;0.10;;;;;;;3.13;98.98;100809.69;5014952;28;20555;-49
2024/02/28 07:43:05;;;;;;;0.20;0.10;;;;;;;3.00;99.10;100810.41;5015626;28;20536;-48
2024/02/28 07:45:32;;;;;;;0.20;0.20;;;;;;;2.95;99.19;100818.25;5013939;28;20456;-49
2024/02/28 07:47:58;;;;;;;0.20;0.10;;;;;;;2.99;99.47;100816.53;5004471;28;20492;-48
2024/02/28 07:50:25;;;;;;;0.20;0.20;;;;;;;3.04;99.93;100814.88;5015207;28;20456;-48
2024/02/28 07:52:54;;;;;;;0.20;0.10;;;;;;;3.17;100.00;100815.88;5015016;28;20448;-48
2024/02/28 07:55:22;;;;;;;0.20;0.10;;;;;;;3.21;100.00;100825.53;5014904;28;20449;-48
2024/02/28 07:57:53;;;;;;;0.20;0.10;;;;;;;3.34;100.00;100821.28;5015066;28;20897;-48
2024/02/28 08:00:20;;;;;;;0.20;0.10;;;;;;;3.48;99.18;100825.78;5010854;28;20441;-48
2024/02/28 08:02:46;;;;;;;0.20;0.10;;;;;;;3.48;99.39;100819.66;5004952;28;21029;-49
2024/02/28 08:05:14;;;;;;;0.30;0.20;;;;;;;3.56;98.97;100824.13;5014635;28;20507;-48
2024/02/28 08:07:42;;;;;;;0.20;0.10;;;;;;;3.64;99.11;100826.78;5013798;28;20908;-49
2024/02/28 08:10:09;;;;;;;0.20;0.10;;;;;;;3.70;99.56;100818.06;5014610;28;20448;-48
2024/02/28 08:12:36;;;;;;;0.20;0.10;;;;;;;3.62;100.00;100825.03;5014792;28;20449;-48
2024/02/28 08:15:05;;;;;;;0.20;0.20;;;;;;;3.80;100.00;100825.16;5014718;28;20480;-48
2024/02/28 08:17:31;;;;;;;0.20;0.10;;;;;;;3.92;99.39;100821.75;5009180;28;21056;-48
2024/02/28 08:19:58;;;;;;;0.20;0.10;;;;;;;3.95;99.45;100827.00;5014514;28;20457;-48
2024/02/28 08:22:24;;;;;;;0.20;0.10;;;;;;;3.91;99.60;100828.75;5014351;28;20540;-48
2024/02/28 08:24:52;;;;;;;0.20;0.10;;;;;;;3.89;100.00;100833.13;5014186;28;21057;-48
2024/02/28 08:27:19;;;;;;;0.20;0.20;;;;;;;4.02;100.00;100836.72;5014071;28;20492;-48
2024/02/28 08:29:46;;;;;;;0.20;0.10;;;;;;;4.23;100.00;100831.59;5014123;28;20459;-49
2024/02/28 08:32:13;;;;;;;0.20;0.10;;;;;;;4.39;100.00;100820.28;5013898;28;20864;-49
2024/02/28 08:34:43;;;;;;;0.20;0.10;;;;;;;4.58;99.20;100823.88;5014098;28;20458;-49
2024/02/28 08:37:10;;;;;;;0.20;0.20;;;;;;;4.44;99.11;100825.56;5013659;28;20461;-49
2024/02/28 08:39:36;;;;;;;0.20;0.20;;;;;;;4.68;98.92;100830.06;5014090;28;20536;-49
2024/02/28 08:42:03;;;;;;;0.30;0.20;;;;;;;4.58;98.91;100839.69;5013943;28;20452;-49
2024/02/28 08:44:30;;;;;;;0.20;0.20;;;;;;;4.55;99.09;100831.78;5014070;28;20884;-49
2024/02/28 08:46:57;;;;;;;0.20;0.10;;;;;;;4.69;99.05;100837.09;5002377;28;20957;-49
2024/02/28 08:49:23;;;;;;;0.30;0.20;;;;;;;4.81;98.63;100842.41;5013651;28;20540;-49
2024/02/28 08:51:50;;;;;;;3.60;3.43;;;;;;;4.88;99.38;100845.94;5013721;28;20452;-49
2024/02/28 08:54:16;;;;;;;0.27;0.20;;;;;;;5.07;98.24;100860.91;5006719;28;20464;-49
2024/02/28 08:56:43;;;;;;;0.30;0.20;;;;;;;5.14;97.86;100859.19;4995860;28;20449;-49
2024/02/28 08:59:22;;;;;;;0.30;0.20;;;;;;;5.36;97.62;100863.66;5014267;28;20451;-51
2024/02/28 09:01:48;;;;;;;0.30;0.10;;;;;;;5.54;96.36;100858.38;5000140;28;20448;-51
2024/02/28 09:04:15;;;;;;;0.30;0.20;;;;;;;5.71;96.10;100860.16;5013303;28;20459;-51
2024/02/28 09:06:41;;;;;;;0.30;0.20;;;;;;;5.68;96.53;100858.41;5013222;28;20889;-50
2024/02/28 09:09:08;;;;;;;0.30;0.20;;;;;;;5.65;96.87;100854.00;5013291;28;20492;-50
2024/02/28 09:11:34;;;;;;;0.30;0.20;;;;;;;5.55;96.46;100854.88;5013287;28;20459;-51
2024/02/28 09:14:01;;;;;;;0.30;0.10;;;;;;;5.55;96.27;100860.16;5013242;28;20937;-51
2024/02/28 09:16:28;;;;;;;0.30;0.20;;;;;;;5.94;96.49;100861.06;5008505;28;21009;-52
2024/02/28 09:18:55;;;;;;;0.30;0.20;;;;;;;6.02;95.91;100863.69;5012517;28;20463;-51
2024/02/28 09:21:21;;;;;;;0.30;0.20;;;;;;;6.38;95.42;100862.75;5013121;28;20448;-52
2024/02/28 09:23:48;;;;;;;0.30;0.20;;;;;;;6.36;94.13;100857.50;5013264;28;20460;-51
2024/02/28 09:26:14;;;;;;;0.30;0.20;;;;;;;6.47;94.62;100865.41;5012938;28;20457;-52
2024/02/28 09:28:41;;;;;;;0.93;0.93;;;;;;;6.68;93.44;100867.94;5012991;28;20578;-51
2024/02/28 09:31:07;;;;;;;0.30;0.17;;;;;;;7.06;93.23;100862.50;5012713;28;20470;-51
2024/02/28 09:33:33;;;;;;;0.30;0.20;;;;;;;6.70;93.27;100860.91;5012967;28;20900;-52
2024/02/28 09:36:02;;;;;;;0.30;0.20;;;;;;;6.84;92.64;100869.66;5012894;28;20526;-50
2024/02/28 09:38:29;;;;;;;0.30;0.10;;;;;;;7.00;92.48;100861.69;5012961;28;20473;-49
2024/02/28 09:40:56;;;;;;;0.30;0.20;;;;;;;7.17;91.93;100861.59;5012809;28;20453;-50
2024/02/28 09:43:30;;;;;;;0.30;0.20;;;;;;;6.90;93.10;100859.97;5012981;28;20484;-51
2024/02/28 09:46:02;;;;;;;0.30;0.20;;;;;;;7.29;92.89;100859.75;5008167;28;20961;-51
2024/02/28 09:48:30;;;;;;;0.30;0.20;;;;;;;7.25;92.62;100860.63;5006612;28;20503;-48
2024/02/28 09:50:57;;;;;;;0.30;0.20;;;;;;;7.21;92.11;100856.25;5012754;28;20459;-48
2024/02/28 09:53:24;;;;;;;0.30;0.20;;;;;;;7.78;91.77;100863.81;5011208;28;20510;-49
2024/02/28 09:55:51;;;;;;;0.30;0.20;;;;;;;7.72;91.88;100859.44;4993320;28;20485;-50
2024/02/28 09:58:22;;;;;;;0.30;0.20;;;;;;;7.63;91.49;100859.50;5006372;28;20555;-50
2024/02/28 10:00:49;;;;;;;0.30;0.20;;;;;;;7.83;90.91;100857.59;5004422;28;21029;-51
2024/02/28 10:03:19;;;;;;;0.30;0.20;;;;;;;7.95;91.29;100862.78;5007899;28;20474;-51
2024/02/28 10:05:47;;;;;;;0.30;0.20;;;;;;;8.07;90.20;100867.06;5012561;28;20527;-52
2024/02/28 10:08:14;;;;;;;0.30;0.20;;;;;;;8.16;88.46;100871.44;5012208;28;20876;-51
2024/02/28 10:10:54;;;;;;;0.30;0.20;;;;;;;8.01;88.09;100870.66;5012395;28;20452;-52
2024/02/28 10:13:21;;;;;;;0.30;0.20;;;;;;;8.05;90.00;100873.28;5012325;28;20966;-51
2024/02/28 10:15:50;;;;;;;0.30;0.20;;;;;;;8.46;88.96;100865.84;5009115;28;20540;-50
2024/02/28 10:18:17;;;;;;;0.30;0.20;;;;;;;8.47;88.26;100861.41;5011251;28;20488;-52
2024/02/28 10:20:43;;;;;;;0.30;0.20;;;;;;;8.48;88.03;100856.09;5012353;28;20455;-50
2024/02/28 10:23:10;;;;;;;0.30;0.20;;;;;;;8.29;86.83;100865.13;5012224;28;20543;-51
2024/02/28 10:25:44;;;;;;;0.30;0.20;;;;;;;8.33;87.42;100870.34;5012468;28;20506;-52
2024/02/28 10:28:22;;;;;;;0.30;0.20;;;;;;;8.53;86.67;100869.31;4989699;28;20495;-50
2024/02/28 10:30:49;;;;;;;0.30;0.20;;;;;;;8.59;88.09;100879.84;5016056;28;20583;-50
2024/02/28 10:33:16;;;;;;;0.30;0.20;;;;;;;9.05;86.05;100868.72;5016394;28;20459;-51
2024/02/28 10:35:46;;;;;;;0.30;0.20;;;;;;;8.92;85.86;100865.34;5015993;28;20482;-51
2024/02/28 10:38:13;;;;;;;0.30;0.20;;;;;;;9.26;84.57;100864.88;5016169;28;20896;-51
2024/02/28 10:40:40;;;;;;;2.53;2.33;;;;;;;9.07;84.87;100867.78;5016303;28;20554;-51
2024/02/28 10:43:10;;;;;;;0.30;0.20;;;;;;;9.69;83.08;100868.63;5016340;28;20459;-51
2024/02/28 10:45:38;;;;;;;0.30;0.20;;;;;;;9.87;81.66;100871.88;5014273;28;20453;-51
2024/02/28 10:48:25;;;;;;;0.30;0.20;;;;;;;9.92;81.44;100881.56;5009361;28;20495;-51
2024/02/28 10:50:54;;;;;;;0.40;0.20;;;;;;;9.83;80.22;100881.69;4990151;28;20506;-51
2024/02/28 10:53:30;;;;;;;0.30;0.20;;;;;;;9.38;82.12;100886.81;5015737;28;20457;-51
2024/02/28 10:56:02;;;;;;;0.30;0.20;;;;;;;9.06;82.97;100881.06;4985302;28;20451;-51
2024/02/28 10:58:34;;;;;;;0.30;0.20;;;;;;;9.34;81.84;100885.09;5011763;28;20846;-50
2024/02/28 11:01:02;;;;;;;0.30;0.20;;;;;;;9.47;81.50;100888.47;5006267;28;20965;-50
2024/02/28 11:03:29;;;;;;;0.30;0.20;;;;;;;9.68;79.61;100889.91;5012873;28;20498;-50
2024/02/28 11:05:56;;;;;;;0.30;0.20;;;;;;;9.90;80.22;100893.13;5015967;28;20452;-51
2024/02/28 11:08:24;;;;;;;0.30;0.20;;;;;;;9.65;79.66;100885.53;5015287;28;20907;-51
2024/02/28 11:10:55;;;;;;;0.30;0.20;;;;;;;9.64;80.12;100894.38;5015706;28;20527;-51
2024/02/28 11:13:24;;;;;;;0.30;0.20;;;;;;;9.07;82.32;100882.81;5015373;28;20452;-50
2024/02/28 11:15:51;;;;;;;0.30;0.20;;;;;;;9.35;81.30;100880.66;5011884;28;21046;-51
2024/02/28 11:18:18;;;;;;;0.30;0.20;;;;;;;9.52;81.51;100883.94;5013759;28;20841;-50
2024/02/28 11:20:48;;;;;;;0.30;0.20;;;;;;;9.65;81.18;100880.22;5015585;28;20567;-51
2024/02/28 11:23:17;;;;;;;0.30;0.20;;;;;;;9.59;81.36;100874.09;5015487;28;20558;-51
2024/02/28 11:25:43;;;;;;;0.30;0.20;;;;;;;9.46;81.20;100873.44;5015301;28;20484;-51
2024/02/28 11:28:10;;;;;;;0.30;0.20;;;;;;;8.92;81.38;100875.06;5015441;28;21015;-50
2024/02/28 11:30:36;;;;;;;0.30;0.20;;;;;;;9.27;81.19;100866.63;5015534;28;20456;-51
2024/02/28 11:33:03;;;;;;;0.30;0.20;;;;;;;9.48;81.20;100872.50;5015156;28;20941;-51
2024/02/28 11:35:32;;;;;;;0.30;0.20;;;;;;;9.93;80.53;100875.34;5015322;28;20956;-50